Time;durP1;ratioP1;P1;durP2;ratioP2;P2;SDS_P1;SDS_P2;PMS_P1;PMS_P2;Temp;Humidity;BMP_temperature;BMP_pressure;BME280_temperature;BME280_humidity;BME280_pressure;Samples;Min_cycle;Max_cycle;Signal;HPM_P1;HPM_P2
2022/09/09 00:01:49;;;;;;;5.05;3.45;;;;;;;23.91;71.48;100421.94;5074847;28;20519;-71
2022/09/09 00:04:29;;;;;;;4.85;3.55;;;;;;;23.96;71.15;100424.41;5074732;28;20047;-71
2022/09/09 00:07:02;;;;;;;4.47;3.72;;;;;;;23.86;71.49;100421.06;5074286;28;20040;-71
2022/09/09 00:09:41;;;;;;;6.97;3.50;;;;;;;23.75;71.60;100426.47;5074771;28;20044;-71
2022/09/09 00:12:14;;;;;;;13.10;3.78;;;;;;;23.71;72.04;100431.19;5074027;28;20049;-71
2022/09/09 00:15:11;;;;;;;8.60;3.70;;;;;;;23.82;71.71;100431.38;5074762;28;20048;-71
2022/09/09 00:17:54;;;;;;;5.22;3.67;;;;;;;24.02;70.95;100426.50;5074672;28;20052;-71
2022/09/09 00:20:40;;;;;;;5.25;3.58;;;;;;;23.94;71.22;100423.97;5056641;28;20045;-71
2022/09/09 00:23:27;;;;;;;5.88;3.80;;;;;;;24.02;70.89;100422.91;5074165;28;20816;-71
2022/09/09 00:26:16;;;;;;;5.70;3.90;;;;;;;23.66;72.19;100427.94;5074566;28;20037;-71
2022/09/09 00:29:00;;;;;;;8.90;4.25;;;;;;;23.80;72.00;100428.16;5074137;28;20040;-71
2022/09/09 00:31:31;;;;;;;7.72;3.25;;;;;;;23.92;71.51;100429.13;5064215;28;20044;-71
2022/09/09 00:34:10;;;;;;;6.60;3.83;;;;;;;24.11;70.05;100426.25;5072755;28;20044;-71
2022/09/09 00:36:39;;;;;;;5.90;3.50;;;;;;;24.25;69.38;100427.66;5073929;28;20048;-71
2022/09/09 00:39:32;;;;;;;4.65;3.17;;;;;;;24.25;68.37;100430.44;5072524;28;20091;-71
2022/09/09 00:42:23;;;;;;;6.18;3.13;;;;;;;24.04;68.47;100428.91;5074173;28;20048;-71
2022/09/09 00:44:53;;;;;;;4.55;2.80;;;;;;;24.33;67.11;100437.72;5072602;28;20499;-71
2022/09/09 00:47:37;;;;;;;7.80;3.03;;;;;;;24.23;64.75;100433.59;5072954;28;20045;-71
2022/09/09 00:50:14;;;;;;;2.55;2.00;;;;;;;23.84;63.53;100429.00;5056009;28;20048;-71
2022/09/09 00:52:51;;;;;;;6.93;1.83;;;;;;;23.66;63.24;100433.50;5055718;28;20037;-71
2022/09/09 00:55:27;;;;;;;2.83;2.00;;;;;;;23.82;62.66;100424.97;5060284;28;20407;-71
2022/09/09 00:57:55;;;;;;;4.63;2.47;;;;;;;23.93;61.79;100430.72;5073439;28;20049;-71
2022/09/09 01:00:27;;;;;;;2.33;2.03;;;;;;;24.02;62.28;100428.47;5073798;28;20048;-71
2022/09/09 01:03:10;;;;;;;5.90;1.90;;;;;;;23.98;62.16;100430.41;5070541;28;20044;-71
2022/09/09 01:05:50;;;;;;;2.95;1.80;;;;;;;23.98;62.83;100425.63;5053451;28;20395;-71
2022/09/09 01:08:42;;;;;;;2.25;1.90;;;;;;;23.92;63.15;100427.16;5067082;28;20045;-71
2022/09/09 01:11:49;;;;;;;5.03;1.95;;;;;;;23.99;62.67;100418.84;5071361;28;20049;-71
2022/09/09 01:14:32;;;;;;;3.70;2.55;;;;;;;23.99;63.35;100423.63;5049435;28;20053;-71
2022/09/09 01:17:19;;;;;;;4.93;2.53;;;;;;;24.01;64.07;100416.50;5067832;28;20044;-71
2022/09/09 01:20:16;;;;;;;6.35;2.70;;;;;;;23.96;65.07;100413.22;5052104;28;20057;-71
2022/09/09 01:23:04;;;;;;;4.18;2.72;;;;;;;23.82;65.37;100406.25;5061675;28;20426;-71
2022/09/09 01:25:43;;;;;;;5.53;2.40;;;;;;;23.93;65.03;100411.16;5070833;28;20056;-71
2022/09/09 01:28:25;;;;;;;4.28;2.50;;;;;;;23.72;64.86;100412.47;5055553;28;20394;-71
2022/09/09 01:30:58;;;;;;;3.78;2.80;;;;;;;23.52;65.54;100418.13;5041722;28;20049;-71
2022/09/09 01:33:31;;;;;;;3.67;2.72;;;;;;;23.68;65.43;100409.63;5054781;28;20057;-71
2022/09/09 01:36:10;;;;;;;4.05;2.78;;;;;;;23.78;65.03;100402.56;5072087;28;20406;-71
2022/09/09 01:38:45;;;;;;;3.38;2.95;;;;;;;23.66;65.85;100400.00;5071109;28;20401;-71
2022/09/09 01:41:14;;;;;;;4.07;2.67;;;;;;;23.72;65.85;100396.53;5070334;28;20051;-71
2022/09/09 01:43:51;;;;;;;4.55;2.45;;;;;;;23.69;65.24;100400.03;5070145;28;20406;-71
2022/09/09 01:46:21;;;;;;;6.45;3.17;;;;;;;23.86;65.03;100398.69;5054473;28;20052;-71
2022/09/09 01:48:52;;;;;;;2.70;2.45;;;;;;;23.83;65.07;100388.28;5057177;28;20053;-71
2022/09/09 01:51:21;;;;;;;5.55;3.35;;;;;;;23.93;64.55;100394.41;5070836;28;20393;-71
2022/09/09 01:53:49;;;;;;;3.90;2.88;;;;;;;23.92;64.65;100390.81;5071140;28;20051;-71
2022/09/09 01:56:26;;;;;;;2.63;2.30;;;;;;;23.82;65.83;100386.69;5038071;28;20044;-71
2022/09/09 01:59:04;;;;;;;2.88;2.65;;;;;;;23.98;65.02;100382.91;5054676;28;20482;-71
2022/09/09 02:02:00;;;;;;;5.00;2.42;;;;;;;23.88;66.00;100385.19;5071009;28;20056;-71
2022/09/09 02:04:45;;;;;;;3.33;2.45;;;;;;;23.76;66.33;100377.03;5051059;28;20059;-71
2022/09/09 02:07:41;;;;;;;2.70;2.50;;;;;;;23.69;66.14;100379.69;5057319;28;20063;-72
2022/09/09 02:10:38;;;;;;;4.20;2.15;;;;;;;23.56;67.30;100381.88;5079726;28;20052;-71
2022/09/09 02:13:21;;;;;;;3.60;2.60;;;;;;;23.55;67.60;100389.44;5071971;28;20048;-71
2022/09/09 02:16:09;;;;;;;4.35;2.63;;;;;;;23.37;68.55;100391.13;5071111;28;20040;-71
2022/09/09 02:18:44;;;;;;;3.15;2.50;;;;;;;23.36;68.67;100393.13;5069072;28;20060;-71
2022/09/09 02:21:14;;;;;;;4.45;3.05;;;;;;;23.22;69.55;100390.88;5072066;28;20047;-71
2022/09/09 02:23:44;;;;;;;4.97;3.22;;;;;;;23.15;70.40;100396.31;5053085;28;20658;-71
2022/09/09 02:26:20;;;;;;;4.45;3.28;;;;;;;23.07;70.82;100381.44;5072188;28;20045;-71
2022/09/09 02:28:58;;;;;;;3.17;2.67;;;;;;;23.12;70.96;100383.09;5053783;28;20552;-71
2022/09/09 02:31:26;;;;;;;4.05;3.00;;;;;;;23.14;71.08;100378.78;5054368;28;20058;-71
2022/09/09 02:34:01;;;;;;;4.93;2.80;;;;;;;23.18;70.54;100376.81;5071918;28;20047;-71
2022/09/09 02:36:34;;;;;;;5.00;2.95;;;;;;;23.31;69.76;100371.91;5054397;28;20044;-71
2022/09/09 02:39:04;;;;;;;3.97;2.33;;;;;;;23.29;69.90;100387.38;5059133;28;20394;-71
2022/09/09 02:41:38;;;;;;;6.55;2.83;;;;;;;23.32;70.45;100392.25;5061841;28;20509;-71
2022/09/09 02:44:15;;;;;;;3.80;3.50;;;;;;;23.40;69.88;100399.56;5071513;28;20061;-71
2022/09/09 02:47:07;;;;;;;6.00;3.03;;;;;;;23.34;70.01;100392.69;5070010;28;20131;-71
2022/09/09 02:49:43;;;;;;;6.03;3.08;;;;;;;23.21;70.69;100398.44;5070060;28;20049;-71
2022/09/09 02:52:18;;;;;;;6.28;3.42;;;;;;;23.15;70.40;100399.91;5070999;28;20499;-71
2022/09/09 02:54:51;;;;;;;3.50;2.90;;;;;;;23.14;70.49;100397.50;5070997;28;20395;-71
2022/09/09 02:57:25;;;;;;;4.28;3.28;;;;;;;23.21;69.10;100397.59;5074148;28;20045;-71
2022/09/09 02:59:57;;;;;;;4.80;2.95;;;;;;;23.14;69.28;100405.84;5071204;28;20411;-72
2022/09/09 03:02:26;;;;;;;3.15;2.80;;;;;;;23.08;67.73;100386.63;5053141;28;20402;-72
2022/09/09 03:04:59;;;;;;;;;;;;;;;23.14;67.08;100398.31;5070857;28;20658;-71
2022/09/09 03:07:27;;;;;;;3.83;2.38;;;;;;;23.18;66.47;100385.19;5071080;28;20370;-71
2022/09/09 03:09:55;;;;;;;2.60;2.08;;;;;;;23.23;66.13;100389.69;5055347;28;20036;-71
2022/09/09 03:12:26;;;;;;;3.10;2.15;;;;;;;23.25;66.13;100398.50;5073786;28;20739;-71
2022/09/09 03:14:54;;;;;;;5.10;2.47;;;;;;;23.31;65.83;100380.28;5064697;28;20502;-71
2022/09/09 03:17:24;;;;;;;2.92;2.40;;;;;;;23.35;65.35;100370.00;5065070;28;20052;-71
2022/09/09 03:19:54;;;;;;;5.00;2.40;;;;;;;23.17;66.36;100385.59;5074674;28;20048;-71
2022/09/09 03:22:22;;;;;;;5.55;2.45;;;;;;;23.27;66.03;100376.59;5075455;28;20063;-71
2022/09/09 03:24:51;;;;;;;4.45;1.90;;;;;;;23.24;66.35;100368.97;5062194;28;20052;-71
2022/09/09 03:27:19;;;;;;;7.93;2.50;;;;;;;23.37;66.18;100368.81;5040982;28;20421;-71
2022/09/09 03:29:51;;;;;;;3.85;2.38;;;;;;;23.33;66.13;100369.56;5074676;28;20051;-71
2022/09/09 03:32:24;;;;;;;8.13;2.67;;;;;;;23.38;65.96;100362.03;5073626;28;20055;-71
2022/09/09 03:34:52;;;;;;;2.15;1.95;;;;;;;23.09;67.41;100354.78;5075481;28;20394;-71
2022/09/09 03:37:20;;;;;;;2.75;2.38;;;;;;;23.18;67.26;100359.28;5074287;28;20053;-71
2022/09/09 03:39:50;;;;;;;2.97;2.60;;;;;;;23.29;67.31;100351.09;5057450;28;20036;-71
2022/09/09 03:42:19;;;;;;;2.50;2.10;;;;;;;23.31;67.15;100352.38;5056532;28;20060;-71
2022/09/09 03:44:51;;;;;;;4.55;2.85;;;;;;;23.31;67.24;100346.78;5073248;28;20044;-71
2022/09/09 03:47:22;;;;;;;8.43;2.60;;;;;;;23.32;67.35;100351.19;5073296;28;20057;-71
2022/09/09 03:49:54;;;;;;;3.20;2.38;;;;;;;23.27;68.15;100347.88;5073208;28;20036;-71
2022/09/09 03:52:24;;;;;;;3.13;1.92;;;;;;;23.21;67.62;100345.41;5073553;28;20041;-71
2022/09/09 03:54:56;;;;;;;3.13;2.42;;;;;;;23.28;68.12;100353.09;5074976;28;20407;-71
2022/09/09 03:57:24;;;;;;;2.50;2.17;;;;;;;23.29;67.94;100353.88;5073743;28;20049;-71
2022/09/09 03:59:52;;;;;;;4.28;2.40;;;;;;;23.29;67.63;100346.31;5074216;28;20048;-71
2022/09/09 04:02:21;;;;;;;3.65;1.83;;;;;;;23.15;68.44;100346.06;5056940;28;20052;-71
2022/09/09 04:04:49;;;;;;;4.18;2.15;;;;;;;23.14;68.47;100355.63;5073020;28;20044;-71
2022/09/09 04:07:17;;;;;;;3.95;2.30;;;;;;;23.06;68.99;100344.34;5057140;28;20052;-71
2022/09/09 04:09:45;;;;;;;2.40;2.20;;;;;;;23.17;68.52;100346.53;5073279;28;20049;-71
2022/09/09 04:12:14;;;;;;;4.65;2.83;;;;;;;23.10;68.24;100336.03;5069552;28;20375;-71
2022/09/09 04:14:42;;;;;;;3.22;2.55;;;;;;;22.95;68.92;100346.13;5056838;28;20048;-71
2022/09/09 04:17:10;;;;;;;3.60;2.42;;;;;;;23.07;68.23;100336.78;5074400;28;20045;-71
2022/09/09 04:19:38;;;;;;;2.78;2.45;;;;;;;22.94;69.00;100338.94;5073737;28;20045;-71
2022/09/09 04:22:07;;;;;;;6.40;3.15;;;;;;;22.89;69.26;100348.44;5072598;28;20048;-71
2022/09/09 04:24:35;;;;;;;3.47;2.65;;;;;;;22.95;68.71;100351.72;5073983;28;20067;-71
2022/09/09 04:27:03;;;;;;;4.85;3.40;;;;;;;22.83;69.40;100344.34;5055880;28;20037;-71
2022/09/09 04:29:34;;;;;;;3.83;3.05;;;;;;;22.98;69.23;100344.59;5067858;28;20391;-71
2022/09/09 04:32:02;;;;;;;4.18;3.05;;;;;;;23.01;69.29;100349.44;5074082;28;20057;-71
2022/09/09 04:34:31;;;;;;;4.80;3.42;;;;;;;23.40;68.05;100342.94;5055906;28;20494;-92
2022/09/09 04:37:00;;;;;;;6.45;3.60;;;;;;;23.71;67.21;100352.97;5056343;28;20521;-93
2022/09/09 04:39:28;;;;;;;5.93;3.42;;;;;;;24.20;65.56;100344.09;5072494;28;20395;-92
2022/09/09 04:41:58;;;;;;;5.60;3.05;;;;;;;24.38;64.44;100345.13;5064973;28;20045;-92
2022/09/09 04:44:26;;;;;;;4.60;2.85;;;;;;;24.67;63.52;100342.66;5042822;28;20056;-91
2022/09/09 04:46:54;;;;;;;6.82;3.10;;;;;;;24.60;63.52;100336.19;5057190;28;20068;-92
2022/09/09 04:49:23;;;;;;;5.88;3.35;;;;;;;24.73;63.32;100336.72;5073790;28;20049;-92
2022/09/09 04:51:51;;;;;;;6.40;3.00;;;;;;;24.76;63.07;100330.34;5074460;28;20037;-92
2022/09/09 04:54:21;;;;;;;6.82;3.17;;;;;;;24.57;63.57;100337.75;5056804;28;20036;-92
2022/09/09 04:56:50;;;;;;;4.95;2.90;;;;;;;24.59;63.72;100331.78;5056625;28;20064;-92
2022/09/09 04:59:19;;;;;;;7.95;3.67;;;;;;;24.49;63.92;100330.47;5074860;28;20502;-93
2022/09/09 05:01:51;;;;;;;3.60;2.97;;;;;;;24.38;64.27;100333.13;5055577;28;20056;-92
2022/09/09 05:04:21;;;;;;;2.63;2.42;;;;;;;24.35;64.25;100331.09;5081400;28;20044;-91
2022/09/09 05:06:49;;;;;;;6.78;3.00;;;;;;;24.60;63.46;100342.59;5039454;28;20052;-90
2022/09/09 05:09:17;;;;;;;6.18;2.85;;;;;;;24.67;63.32;100341.84;5073933;28;20041;-92
2022/09/09 05:11:46;;;;;;;4.93;2.78;;;;;;;24.28;64.64;100349.41;5056692;28;20047;-93
2022/09/09 05:14:29;;;;;;;4.20;3.20;;;;;;;24.51;64.01;100356.06;5057503;28;20483;-91
2022/09/09 05:17:00;;;;;;;3.00;2.60;;;;;;;24.56;63.86;100350.94;5036344;28;20048;-93
2022/09/09 05:19:27;;;;;;;3.30;2.80;;;;;;;24.84;63.00;100360.06;5071811;28;20053;-93
2022/09/09 05:21:55;;;;;;;4.07;3.00;;;;;;;24.99;62.16;100360.19;5057868;28;20513;-94
2022/09/09 05:24:33;;;;;;;4.43;2.67;;;;;;;25.06;61.63;100363.06;5074518;28;20036;-95
2022/09/09 05:27:02;;;;;;;5.85;2.60;;;;;;;24.81;62.45;100367.22;5057564;28;20048;-95
2022/09/09 05:29:33;;;;;;;10.52;3.47;;;;;;;24.85;62.69;100367.25;5055589;28;20059;-95
2022/09/09 05:32:03;;;;;;;4.63;2.70;;;;;;;25.14;61.34;100372.31;5064843;28;20475;-95
2022/09/09 05:34:31;;;;;;;5.07;3.15;;;;;;;25.21;61.59;100376.00;5047848;28;20056;-95
2022/09/09 05:37:01;;;;;;;8.50;3.42;;;;;;;25.28;61.58;100374.47;5040497;28;20053;-94
2022/09/09 05:39:29;;;;;;;4.88;2.85;;;;;;;25.53;60.44;100383.09;5055711;28;20060;-93
2022/09/09 05:41:57;;;;;;;8.52;3.42;;;;;;;25.49;60.69;100382.22;5056770;28;20051;-90
2022/09/09 05:44:27;;;;;;;10.45;3.30;;;;;;;25.56;60.60;100384.34;5059214;28;20056;-95
2022/09/09 05:46:55;;;;;;;7.18;3.30;;;;;;;25.60;60.31;100388.75;5060128;28;20040;-95
2022/09/09 05:49:23;;;;;;;7.28;3.08;;;;;;;25.39;60.78;100383.75;5077230;28;20040;-96
2022/09/09 05:51:52;;;;;;;2.88;2.60;;;;;;;25.53;61.02;100394.31;5064599;28;20041;-96
2022/09/09 05:54:21;;;;;;;7.20;2.70;;;;;;;25.39;61.24;100392.16;5066193;28;20048;-96
2022/09/09 05:56:52;;;;;;;5.88;2.63;;;;;;;25.25;62.02;100397.63;5084825;28;20119;-95
2022/09/09 05:59:20;;;;;;;3.10;2.80;;;;;;;25.20;61.82;100395.97;5072816;28;20044;-96
2022/09/09 06:01:50;;;;;;;6.00;3.33;;;;;;;25.30;61.86;100398.09;5076150;28;20037;-96
2022/09/09 06:04:24;;;;;;;4.72;2.88;;;;;;;25.33;61.44;100407.72;5070266;28;20063;-96
2022/09/09 06:06:52;;;;;;;6.07;3.30;;;;;;;25.19;61.83;100399.97;5063215;28;20049;-95
2022/09/09 06:09:22;;;;;;;4.43;2.80;;;;;;;25.14;62.20;100394.72;5043414;28;20052;-94
2022/09/09 06:11:50;;;;;;;5.50;2.85;;;;;;;25.11;62.48;100385.09;5056238;28;20047;-94
2022/09/09 06:14:21;;;;;;;4.20;2.80;;;;;;;25.58;61.14;100395.94;5055385;28;20060;-92
2022/09/09 06:16:51;;;;;;;4.32;2.47;;;;;;;25.80;60.44;100398.91;5055802;28;20055;-94
2022/09/09 06:19:26;;;;;;;7.43;3.15;;;;;;;25.70;60.42;100406.84;5056215;28;20361;-95
2022/09/09 06:21:57;;;;;;;9.40;3.00;;;;;;;25.86;59.82;100400.94;5045320;28;20033;-94
2022/09/09 06:24:25;;;;;;;4.65;2.65;;;;;;;25.94;59.37;100401.00;5051345;28;20048;-95
2022/09/09 06:26:55;;;;;;;4.45;3.03;;;;;;;25.90;59.52;100398.16;5055387;28;20063;-95
2022/09/09 06:29:27;;;;;;;4.00;2.45;;;;;;;25.83;60.15;100396.13;5056042;28;20051;-96
2022/09/09 06:31:58;;;;;;;6.75;2.72;;;;;;;26.20;58.75;100399.94;5068386;28;20045;-95
2022/09/09 06:34:28;;;;;;;4.68;3.08;;;;;;;26.32;59.07;100401.63;5033487;28;20055;-95
2022/09/09 06:37:00;;;;;;;8.48;3.45;;;;;;;26.25;59.47;100398.81;5070518;28;20055;-95
2022/09/09 06:39:46;;;;;;;3.67;3.13;;;;;;;26.35;59.21;100400.88;5031492;28;20055;-94
2022/09/09 06:42:15;;;;;;;2.92;2.45;;;;;;;26.25;60.03;100391.19;5068511;28;20044;-96
2022/09/09 06:44:49;;;;;;;1.73;1.60;;;;;;;26.13;60.92;100391.50;5059222;28;20041;-96
2022/09/09 06:47:33;;;;;;;6.43;2.47;;;;;;;26.39;59.74;100389.66;5065427;28;20403;-90
2022/09/09 06:50:01;;;;;;;1.67;1.58;;;;;;;26.33;59.45;100382.81;5051106;28;20478;-93
2022/09/09 06:52:33;;;;;;;2.20;1.60;;;;;;;26.51;58.52;100385.69;5056685;28;20049;-92
2022/09/09 06:55:03;;;;;;;3.33;1.88;;;;;;;26.46;59.05;100397.28;5064139;28;20044;-96
2022/09/09 06:57:32;;;;;;;5.10;1.67;;;;;;;26.59;58.59;100394.94;5066266;28;20040;-93
2022/09/09 07:00:13;;;;;;;2.58;1.65;;;;;;;26.35;59.20;100391.63;5055534;28;20040;-93
2022/09/09 07:02:41;;;;;;;6.03;1.60;;;;;;;26.43;58.89;100391.28;5046377;28;20494;-92
2022/09/09 07:05:10;;;;;;;4.70;1.70;;;;;;;26.53;58.76;100398.13;5063721;28;20057;-90
2022/09/09 07:07:40;;;;;;;3.17;1.70;;;;;;;26.63;58.33;100390.94;5051641;28;20044;-91
2022/09/09 07:10:10;;;;;;;2.85;1.83;;;;;;;26.51;58.36;100397.72;5053595;28;20059;-96
2022/09/09 07:12:38;;;;;;;3.72;1.50;;;;;;;26.50;58.25;100398.94;5063669;28;20411;-91
2022/09/09 07:15:09;;;;;;;2.85;1.60;;;;;;;26.69;57.46;100397.00;5047787;28;20049;-94
2022/09/09 07:17:41;;;;;;;3.55;1.65;;;;;;;26.78;56.98;100396.63;5055094;28;20037;-94
2022/09/09 07:20:09;;;;;;;3.40;1.70;;;;;;;26.77;57.37;100390.19;5064006;28;20406;-96
2022/09/09 07:22:37;;;;;;;3.05;1.80;;;;;;;26.72;57.89;100387.75;5047380;28;20063;-93
2022/09/09 07:25:06;;;;;;;3.58;1.67;;;;;;;26.96;57.04;100385.44;5066357;28;20045;-94
2022/09/09 07:27:35;;;;;;;2.42;1.55;;;;;;;27.00;56.43;100385.44;5065245;28;20041;-91
2022/09/09 07:30:05;;;;;;;4.03;2.10;;;;;;;26.99;56.57;100379.03;5052940;28;20040;-94
2022/09/09 07:32:33;;;;;;;4.63;1.27;;;;;;;26.92;56.65;100373.41;5052345;28;20044;-84
2022/09/09 07:35:02;;;;;;;8.25;1.50;;;;;;;27.07;56.63;100375.03;5041781;28;20060;-93
2022/09/09 07:37:30;;;;;;;3.83;1.73;;;;;;;27.08;56.42;100373.81;5072034;28;20037;-90
2022/09/09 07:39:58;;;;;;;2.17;1.70;;;;;;;27.37;55.31;100378.69;5052279;28;20045;-96
2022/09/09 07:42:26;;;;;;;2.83;1.98;;;;;;;27.40;55.27;100379.84;5066428;28;20041;-92
2022/09/09 07:44:54;;;;;;;4.43;1.67;;;;;;;27.48;55.85;100375.84;5051444;28;20059;-94
2022/09/09 07:47:24;;;;;;;4.10;1.38;;;;;;;27.53;54.76;100383.06;5067086;28;20049;-96
2022/09/09 07:49:52;;;;;;;4.30;1.30;;;;;;;27.65;54.50;100370.66;5051177;28;20045;-91
2022/09/09 07:52:26;;;;;;;2.15;1.67;;;;;;;27.50;55.20;100370.63;5053483;28;20036;-90
2022/09/09 07:54:59;;;;;;;2.83;2.10;;;;;;;27.52;55.45;100370.22;5053025;28;20037;-94
2022/09/09 07:57:30;;;;;;;1.70;1.50;;;;;;;27.43;55.83;100373.44;5069943;28;20060;-92
2022/09/09 07:59:58;;;;;;;5.57;1.55;;;;;;;27.59;55.30;100381.50;5055975;28;20048;-92
2022/09/09 08:02:29;;;;;;;3.97;1.65;;;;;;;27.57;55.14;100381.84;5074352;28;20044;-93
2022/09/09 08:04:59;;;;;;;3.42;2.03;;;;;;;27.52;55.09;100382.28;5068648;28;20048;-90
2022/09/09 08:07:28;;;;;;;2.63;1.65;;;;;;;27.45;55.70;100385.06;5053693;28;20045;-93
2022/09/09 08:09:57;;;;;;;4.30;2.25;;;;;;;27.49;55.94;100391.50;5051975;28;20056;-94
2022/09/09 08:12:29;;;;;;;5.22;1.85;;;;;;;27.53;55.54;100392.31;5065408;28;20048;-90
2022/09/09 08:14:57;;;;;;;4.50;1.90;;;;;;;27.69;55.52;100393.94;5042307;28;20075;-92
2022/09/09 08:17:30;;;;;;;4.38;1.60;;;;;;;27.70;54.90;100387.91;5054297;28;20036;-91
2022/09/09 08:20:05;;;;;;;5.75;2.00;;;;;;;27.88;55.05;100396.31;5053226;28;20503;-92
2022/09/09 08:22:34;;;;;;;4.68;2.00;;;;;;;28.04;54.69;100406.31;5051183;28;20037;-92
2022/09/09 08:25:06;;;;;;;2.80;1.90;;;;;;;28.28;53.77;100399.06;5067118;28;20395;-92
2022/09/09 08:27:37;;;;;;;5.90;2.00;;;;;;;28.14;53.70;100399.88;5050490;28;20045;-92
2022/09/09 08:30:05;;;;;;;1.77;1.45;;;;;;;28.37;53.54;100407.06;5051509;28;20045;-89
2022/09/09 08:32:35;;;;;;;1.98;1.77;;;;;;;28.52;53.13;100401.38;5068767;28;20032;-91
2022/09/09 08:35:03;;;;;;;2.33;1.92;;;;;;;28.46;52.99;100394.56;5066168;28;20368;-87
2022/09/09 08:37:35;;;;;;;5.07;1.80;;;;;;;28.27;53.67;100389.03;5053018;28;20043;-89
2022/09/09 08:40:03;;;;;;;5.90;2.00;;;;;;;28.23;54.15;100391.03;5048119;28;20045;-91
2022/09/09 08:42:40;;;;;;;3.20;1.75;;;;;;;28.23;54.37;100387.41;5047578;28;20048;-90
2022/09/09 08:45:19;;;;;;;2.33;1.67;;;;;;;28.33;53.51;100389.38;5063024;28;20064;-89
2022/09/09 08:47:59;;;;;;;2.97;1.88;;;;;;;28.35;53.98;100389.78;5039497;28;20033;-93
2022/09/09 08:50:38;;;;;;;3.28;2.00;;;;;;;28.57;52.79;100387.69;5052811;28;20072;-91
2022/09/09 08:53:32;;;;;;;2.08;1.92;;;;;;;28.64;52.66;100384.00;5049783;28;20076;-88
2022/09/09 08:56:09;;;;;;;1.77;1.67;;;;;;;28.74;52.48;100384.38;5065148;28;20064;-90
2022/09/09 08:58:49;;;;;;;2.88;1.70;;;;;;;28.85;51.82;100379.47;5073001;28;20048;-92
2022/09/09 09:01:41;;;;;;;2.97;1.95;;;;;;;28.66;51.74;100387.25;5057998;28;20041;-88
2022/09/09 09:04:28;;;;;;;3.05;1.95;;;;;;;29.03;51.46;100384.22;5048977;28;20052;-92
2022/09/09 09:07:21;;;;;;;3.00;1.50;;;;;;;29.03;51.16;100381.41;5053402;28;20618;-92
2022/09/09 09:10:30;;;;;;;3.55;2.00;;;;;;;29.10;50.43;100381.34;5066265;28;20064;-93
2022/09/09 09:13:21;;;;;;;2.97;1.48;;;;;;;29.17;50.61;100380.50;5066576;28;20426;-92
2022/09/09 09:16:05;;;;;;;4.35;1.80;;;;;;;29.10;50.82;100379.34;5067782;28;20041;-93
2022/09/09 09:18:34;;;;;;;3.63;1.50;;;;;;;29.44;49.89;100377.88;5050117;28;20048;-94
2022/09/09 09:21:35;;;;;;;3.35;2.10;;;;;;;29.22;49.78;100385.69;5044947;28;20116;-87
2022/09/09 09:24:15;;;;;;;2.53;1.45;;;;;;;29.40;50.28;100379.91;5019271;28;20055;-90
2022/09/09 09:26:52;;;;;;;4.90;2.00;;;;;;;29.57;49.50;100380.22;5024263;28;20064;-92
2022/09/09 09:29:25;;;;;;;2.90;1.80;;;;;;;29.82;49.14;100376.34;5035700;28;20063;-93
2022/09/09 09:32:02;;;;;;;4.25;2.03;;;;;;;29.78;49.04;100368.69;5032797;28;20052;-95
2022/09/09 09:34:30;;;;;;;4.00;1.95;;;;;;;29.65;49.60;100364.81;5033390;28;20052;-91
2022/09/09 09:37:05;;;;;;;3.58;1.60;;;;;;;29.33;49.69;100363.06;5021738;28;20049;-93
2022/09/09 09:39:39;;;;;;;1.92;1.70;;;;;;;29.40;49.48;100362.19;5047643;28;20059;-95
2022/09/09 09:42:28;;;;;;;2.33;1.83;;;;;;;29.50;49.57;100372.59;5035691;28;20059;-92
2022/09/09 09:45:22;;;;;;;5.88;2.28;;;;;;;29.38;49.96;100360.59;5054832;28;20052;-93
2022/09/09 09:48:03;;;;;;;2.33;2.13;;;;;;;29.46;49.61;100360.53;5042520;28;20047;-92
2022/09/09 09:50:49;;;;;;;4.93;2.03;;;;;;;29.52;49.58;100370.19;5021328;28;20051;-93
2022/09/09 09:53:23;;;;;;;5.22;2.38;;;;;;;29.59;49.63;100380.59;5038442;28;20071;-93
2022/09/09 09:56:04;;;;;;;2.70;1.90;;;;;;;29.34;50.40;100410.56;5055016;28;20032;-93
2022/09/09 09:58:54;;;;;;;3.65;1.80;;;;;;;28.90;49.84;100438.22;5044450;28;20049;-93
2022/09/09 10:01:35;;;;;;;1.92;1.40;;;;;;;28.06;52.86;100454.53;5020803;28;20721;-90
2022/09/09 10:04:19;;;;;;;3.63;1.70;;;;;;;27.35;59.08;100454.94;5010837;28;20048;-91
2022/09/09 10:06:50;;;;;;;4.18;2.33;;;;;;;26.78;62.05;100470.38;5039683;28;20045;-92
2022/09/09 10:09:32;;;;;;;8.98;2.13;;;;;;;25.89;65.57;100491.84;5031507;28;20048;-92
2022/09/09 10:12:22;;;;;;;5.95;1.88;;;;;;;25.40;67.14;100507.81;5051682;28;20399;-89
2022/09/09 10:15:15;;;;;;;2.15;1.45;;;;;;;25.65;65.73;100491.25;5039779;28;20052;-90
2022/09/09 10:17:55;;;;;;;3.50;1.60;;;;;;;25.28;67.52;100503.28;5033008;28;20051;-92
2022/09/09 10:20:55;;;;;;;4.05;1.52;;;;;;;25.38;68.71;100508.19;5053707;28;20036;-92
2022/09/09 10:23:51;;;;;;;3.53;1.55;;;;;;;25.21;72.83;100506.78;5035868;28;20056;-92
2022/09/09 10:26:29;;;;;;;6.15;2.22;;;;;;;25.52;69.53;100493.53;5012423;28;20063;-95
2022/09/09 10:29:22;;;;;;;3.00;1.33;;;;;;;25.62;68.82;100492.03;5052415;28;20057;-95
2022/09/09 10:32:06;;;;;;;3.10;1.48;;;;;;;25.53;66.67;100495.16;5032912;28;20045;-92
2022/09/09 10:34:56;;;;;;;;;;;;;;;25.14;66.60;100493.53;5034436;28;20064;-90
2022/09/09 10:37:55;;;;;;;1.30;1.20;;;;;;;25.15;67.40;100481.13;5039466;28;19927;-89
2022/09/09 10:40:38;;;;;;;3.47;1.17;;;;;;;25.30;67.12;100473.69;5033583;28;20623;-90
2022/09/09 10:43:21;;;;;;;2.10;1.25;;;;;;;25.23;65.55;100468.81;5056422;28;20506;-87
2022/09/09 10:46:13;;;;;;;0.85;0.85;;;;;;;25.21;66.34;100474.00;5048563;28;20051;-86
2022/09/09 10:49:00;;;;;;;1.75;0.85;;;;;;;24.66;67.61;100474.53;5067328;28;20040;-87
2022/09/09 10:51:40;;;;;;;3.30;1.33;;;;;;;24.49;66.51;100467.53;5048725;28;20049;-86
2022/09/09 10:54:30;;;;;;;3.75;0.75;;;;;;;24.35;67.42;100457.75;5067794;28;20399;-87
2022/09/09 10:57:08;;;;;;;2.22;0.82;;;;;;;24.62;67.31;100449.31;5064430;28;20041;-86
2022/09/09 10:59:43;;;;;;;1.73;1.05;;;;;;;24.37;68.01;100444.19;5047787;28;20044;-87
2022/09/09 11:02:22;;;;;;;1.65;0.90;;;;;;;24.49;67.85;100429.16;5036894;28;20074;-87
2022/09/09 11:05:00;;;;;;;1.83;1.65;;;;;;;24.47;68.71;100433.50;5041396;28;20365;-86
2022/09/09 11:07:40;;;;;;;1.35;0.95;;;;;;;24.70;67.58;100434.22;5041010;28;20048;-87
2022/09/09 11:10:32;;;;;;;3.42;1.20;;;;;;;24.65;68.79;100423.38;5054821;28;20048;-87
2022/09/09 11:13:17;;;;;;;2.60;1.25;;;;;;;24.73;68.38;100418.66;5036946;28;20503;-87
2022/09/09 11:15:52;;;;;;;4.03;1.02;;;;;;;24.94;68.75;100415.31;5066740;28;20056;-88
2022/09/09 11:18:24;;;;;;;2.50;1.35;;;;;;;25.26;67.91;100422.44;5019399;28;20492;-88
2022/09/09 11:21:01;;;;;;;2.05;1.30;;;;;;;25.42;66.17;100419.38;5064332;28;20045;-87
2022/09/09 11:23:45;;;;;;;0.88;0.80;;;;;;;25.45;66.27;100410.22;5052314;28;20037;-87
2022/09/09 11:26:30;;;;;;;1.25;0.90;;;;;;;25.52;65.68;100411.47;5056168;28;20044;-87
2022/09/09 11:29:15;;;;;;;2.40;1.20;;;;;;;25.77;64.17;100409.69;5062192;28;20407;-88
2022/09/09 11:31:51;;;;;;;1.17;0.98;;;;;;;25.77;64.33;100406.88;5026615;28;20056;-88
2022/09/09 11:34:39;;;;;;;1.08;0.98;;;;;;;26.00;63.48;100402.25;5055509;28;20052;-90
2022/09/09 11:37:45;;;;;;;2.45;1.13;;;;;;;26.22;62.55;100393.94;5038566;28;20479;-90
2022/09/09 11:40:31;;;;;;;2.78;0.98;;;;;;;26.52;62.87;100401.31;5058008;28;20406;-88
2022/09/09 11:43:41;;;;;;;0.88;0.88;;;;;;;26.93;62.72;100397.47;5056560;28;20079;-89
2022/09/09 11:46:45;;;;;;;1.00;0.90;;;;;;;26.86;61.79;100394.59;5033563;28;20052;-90
2022/09/09 11:49:43;;;;;;;1.75;1.65;;;;;;;26.48;60.54;100401.31;5054406;28;20048;-90
2022/09/09 11:52:37;;;;;;;2.22;1.55;;;;;;;26.75;60.67;100397.41;5040793;28;20147;-91
2022/09/09 11:55:32;;;;;;;0.77;0.77;;;;;;;26.92;62.24;100401.47;5044365;28;20059;-93
2022/09/09 11:58:03;;;;;;;2.70;0.75;;;;;;;27.14;59.25;100387.47;5046243;28;20052;-96
2022/09/09 12:00:44;;;;;;;3.13;1.17;;;;;;;27.53;59.49;100394.31;5024482;28;20055;-92
2022/09/09 12:03:42;;;;;;;1.65;0.90;;;;;;;27.57;59.39;100383.88;5044806;28;20059;-92
2022/09/09 12:06:19;;;;;;;1.00;1.00;;;;;;;27.87;57.86;100385.47;5060274;28;20048;-96
2022/09/09 12:08:52;;;;;;;2.08;1.10;;;;;;;28.09;59.42;100379.81;5037243;28;20067;-90